sensor_id;sensor_type;location;lat;lon;timestamp;P1;durP1;ratioP1;P2;durP2;ratioP2
52434;SDS011;38354;52.892;6.148;2022-08-03T03:01:21;8.23;;;2.90;;
52434;SDS011;38354;52.892;6.148;2022-08-03T03:03:48;10.65;;;3.33;;
52434;SDS011;38354;52.892;6.148;2022-08-03T03:06:19;9.88;;;3.13;;
52434;SDS011;38354;52.892;6.148;2022-08-03T03:08:45;14.07;;;3.47;;
52434;SDS011;38354;52.892;6.148;2022-08-03T03:11:13;8.60;;;2.67;;
52434;SDS011;38354;52.892;6.148;2022-08-03T03:13:42;8.27;;;2.70;;
52434;SDS011;38354;52.892;6.148;2022-08-03T03:16:11;13.18;;;3.22;;
52434;SDS011;38354;52.892;6.148;2022-08-03T03:18:38;11.82;;;2.80;;
52434;SDS011;38354;52.892;6.148;2022-08-03T03:21:04;8.13;;;2.85;;
52434;SDS011;38354;52.892;6.148;2022-08-03T03:23:34;13.70;;;3.42;;
52434;SDS011;38354;52.892;6.148;2022-08-03T03:26:02;8.38;;;2.80;;
52434;SDS011;38354;52.892;6.148;2022-08-03T03:28:29;7.38;;;3.08;;
52434;SDS011;38354;52.892;6.148;2022-08-03T03:30:56;9.60;;;2.67;;
52434;SDS011;38354;52.892;6.148;2022-08-03T03:33:23;8.13;;;2.70;;
52434;SDS011;38354;52.892;6.148;2022-08-03T03:35:49;7.88;;;3.10;;
52434;SDS011;38354;52.892;6.148;2022-08-03T03:38:16;8.77;;;2.70;;
52434;SDS011;38354;52.892;6.148;2022-08-03T03:40:42;10.82;;;2.90;;
52434;SDS011;38354;52.892;6.148;2022-08-03T03:43:09;7.82;;;2.55;;
52434;SDS011;38354;52.892;6.148;2022-08-03T03:45:35;8.68;;;2.47;;
52434;SDS011;38354;52.892;6.148;2022-08-03T03:48:05;9.70;;;2.97;;
52434;SDS011;38354;52.892;6.148;2022-08-03T03:50:31;8.40;;;2.70;;
52434;SDS011;38354;52.892;6.148;2022-08-03T03:53:00;10.30;;;3.20;;
52434;SDS011;38354;52.892;6.148;2022-08-03T03:55:26;10.80;;;2.92;;
52434;SDS011;38354;52.892;6.148;2022-08-03T03:57:51;10.60;;;3.30;;
52434;SDS011;38354;52.892;6.148;2022-08-03T04:00:17;6.72;;;3.25;;
52434;SDS011;38354;52.892;6.148;2022-08-03T04:02:44;10.75;;;3.30;;
52434;SDS011;38354;52.892;6.148;2022-08-03T04:05:17;12.30;;;3.28;;
52434;SDS011;38354;52.892;6.148;2022-08-03T04:08:08;11.20;;;3.55;;
52434;SDS011;38354;52.892;6.148;2022-08-03T04:11:42;12.95;;;3.20;;
52434;SDS011;38354;52.892;6.148;2022-08-03T04:13:51;9.45;;;3.08;;
52434;SDS011;38354;52.892;6.148;2022-08-03T04:16:21;11.48;;;2.83;;
52434;SDS011;38354;52.892;6.148;2022-08-03T04:18:51;12.30;;;2.80;;
52434;SDS011;38354;52.892;6.148;2022-08-03T04:21:21;13.07;;;3.35;;
52434;SDS011;38354;52.892;6.148;2022-08-03T04:23:48;10.80;;;2.97;;
52434;SDS011;38354;52.892;6.148;2022-08-03T04:26:18;11.52;;;3.25;;
52434;SDS011;38354;52.892;6.148;2022-08-03T04:28:46;11.80;;;3.35;;
52434;SDS011;38354;52.892;6.148;2022-08-03T04:31:14;9.50;;;3.00;;
52434;SDS011;38354;52.892;6.148;2022-08-03T04:33:42;11.70;;;3.22;;
52434;SDS011;38354;52.892;6.148;2022-08-03T04:36:08;9.43;;;3.08;;
52434;SDS011;38354;52.892;6.148;2022-08-03T04:38:39;9.57;;;2.80;;
52434;SDS011;38354;52.892;6.148;2022-08-03T04:41:16;8.77;;;2.80;;
52434;SDS011;38354;52.892;6.148;2022-08-03T04:43:43;10.60;;;3.03;;
52434;SDS011;38354;52.892;6.148;2022-08-03T04:46:09;10.05;;;3.38;;
52434;SDS011;38354;52.892;6.148;2022-08-03T04:48:36;10.27;;;3.13;;
52434;SDS011;38354;52.892;6.148;2022-08-03T04:51:02;16.05;;;4.40;;
52434;SDS011;38354;52.892;6.148;2022-08-03T04:53:28;12.25;;;3.92;;
52434;SDS011;38354;52.892;6.148;2022-08-03T04:56:02;10.60;;;3.03;;
52434;SDS011;38354;52.892;6.148;2022-08-03T04:58:28;8.18;;;3.53;;
52434;SDS011;38354;52.892;6.148;2022-08-03T05:00:54;12.00;;;3.33;;
52434;SDS011;38354;52.892;6.148;2022-08-03T05:03:19;13.27;;;3.83;;
52434;SDS011;38354;52.892;6.148;2022-08-03T05:05:45;12.35;;;3.28;;
52434;SDS011;38354;52.892;6.148;2022-08-03T05:08:11;12.57;;;3.33;;
52434;SDS011;38354;52.892;6.148;2022-08-03T05:10:36;8.90;;;3.55;;
52434;SDS011;38354;52.892;6.148;2022-08-03T05:13:02;10.65;;;3.20;;
52434;SDS011;38354;52.892;6.148;2022-08-03T05:15:28;13.90;;;3.65;;
52434;SDS011;38354;52.892;6.148;2022-08-03T05:17:54;10.63;;;3.60;;
52434;SDS011;38354;52.892;6.148;2022-08-03T05:20:19;10.50;;;2.85;;
52434;SDS011;38354;52.892;6.148;2022-08-03T05:22:45;17.15;;;4.38;;
52434;SDS011;38354;52.892;6.148;2022-08-03T05:25:11;11.25;;;3.60;;
52434;SDS011;38354;52.892;6.148;2022-08-03T05:27:36;8.75;;;3.30;;
52434;SDS011;38354;52.892;6.148;2022-08-03T05:30:02;11.43;;;3.30;;
52434;SDS011;38354;52.892;6.148;2022-08-03T05:32:28;12.35;;;3.60;;
52434;SDS011;38354;52.892;6.148;2022-08-03T05:34:54;10.35;;;4.03;;
52434;SDS011;38354;52.892;6.148;2022-08-03T05:37:20;9.05;;;3.53;;
52434;SDS011;38354;52.892;6.148;2022-08-03T05:39:45;10.40;;;3.45;;
52434;SDS011;38354;52.892;6.148;2022-08-03T05:42:13;14.27;;;4.00;;
52434;SDS011;38354;52.892;6.148;2022-08-03T05:44:39;12.93;;;3.65;;
52434;SDS011;38354;52.892;6.148;2022-08-03T05:47:06;10.88;;;3.47;;
52434;SDS011;38354;52.892;6.148;2022-08-03T05:49:31;11.40;;;3.90;;
52434;SDS011;38354;52.892;6.148;2022-08-03T05:51:57;11.32;;;4.30;;
52434;SDS011;38354;52.892;6.148;2022-08-03T05:54:23;11.43;;;3.30;;
52434;SDS011;38354;52.892;6.148;2022-08-03T05:56:48;9.23;;;3.35;;
52434;SDS011;38354;52.892;6.148;2022-08-03T05:59:14;16.30;;;3.58;;
52434;SDS011;38354;52.892;6.148;2022-08-03T06:01:40;12.27;;;3.60;;
52434;SDS011;38354;52.892;6.148;2022-08-03T06:04:05;14.82;;;3.70;;
52434;SDS011;38354;52.892;6.148;2022-08-03T06:06:31;17.48;;;3.85;;
52434;SDS011;38354;52.892;6.148;2022-08-03T06:08:57;14.70;;;3.70;;
52434;SDS011;38354;52.892;6.148;2022-08-03T06:11:22;18.55;;;3.53;;
52434;SDS011;38354;52.892;6.148;2022-08-03T06:13:49;18.08;;;4.82;;
52434;SDS011;38354;52.892;6.148;2022-08-03T06:16:14;19.90;;;3.63;;
52434;SDS011;38354;52.892;6.148;2022-08-03T06:18:40;17.60;;;3.78;;
52434;SDS011;38354;52.892;6.148;2022-08-03T06:21:06;13.45;;;3.90;;
52434;SDS011;38354;52.892;6.148;2022-08-03T06:23:31;17.75;;;4.00;;
52434;SDS011;38354;52.892;6.148;2022-08-03T06:25:57;13.40;;;3.55;;
52434;SDS011;38354;52.892;6.148;2022-08-03T06:28:23;20.98;;;4.22;;
52434;SDS011;38354;52.892;6.148;2022-08-03T06:30:48;16.77;;;4.03;;
52434;SDS011;38354;52.892;6.148;2022-08-03T06:33:14;10.20;;;3.63;;
52434;SDS011;38354;52.892;6.148;2022-08-03T06:35:40;15.60;;;4.38;;
52434;SDS011;38354;52.892;6.148;2022-08-03T06:38:06;20.92;;;5.47;;
52434;SDS011;38354;52.892;6.148;2022-08-03T06:40:33;19.02;;;4.28;;
52434;SDS011;38354;52.892;6.148;2022-08-03T06:43:03;12.38;;;3.60;;
52434;SDS011;38354;52.892;6.148;2022-08-03T06:45:30;14.35;;;3.67;;
52434;SDS011;38354;52.892;6.148;2022-08-03T06:48:14;15.65;;;4.40;;
52434;SDS011;38354;52.892;6.148;2022-08-03T06:50:40;19.20;;;4.22;;
52434;SDS011;38354;52.892;6.148;2022-08-03T06:53:06;15.27;;;4.47;;
52434;SDS011;38354;52.892;6.148;2022-08-03T06:55:35;23.25;;;4.55;;
52434;SDS011;38354;52.892;6.148;2022-08-03T06:58:01;19.30;;;4.50;;
52434;SDS011;38354;52.892;6.148;2022-08-03T07:00:27;13.02;;;4.35;;
52434;SDS011;38354;52.892;6.148;2022-08-03T07:02:53;11.52;;;3.97;;
52434;SDS011;38354;52.892;6.148;2022-08-03T07:05:19;16.13;;;4.25;;
52434;SDS011;38354;52.892;6.148;2022-08-03T07:07:44;18.30;;;5.55;;
52434;SDS011;38354;52.892;6.148;2022-08-03T07:10:10;24.75;;;4.82;;
52434;SDS011;38354;52.892;6.148;2022-08-03T07:12:36;15.90;;;4.78;;
52434;SDS011;38354;52.892;6.148;2022-08-03T07:15:03;15.05;;;5.28;;
52434;SDS011;38354;52.892;6.148;2022-08-03T07:17:31;16.05;;;3.92;;
52434;SDS011;38354;52.892;6.148;2022-08-03T07:19:59;12.60;;;4.57;;
52434;SDS011;38354;52.892;6.148;2022-08-03T07:22:25;12.73;;;4.75;;
52434;SDS011;38354;52.892;6.148;2022-08-03T07:24:51;16.38;;;5.30;;
52434;SDS011;38354;52.892;6.148;2022-08-03T07:27:16;15.60;;;5.00;;
52434;SDS011;38354;52.892;6.148;2022-08-03T07:29:42;16.00;;;4.85;;
52434;SDS011;38354;52.892;6.148;2022-08-03T07:32:07;14.13;;;5.45;;
52434;SDS011;38354;52.892;6.148;2022-08-03T07:34:33;19.52;;;6.13;;
52434;SDS011;38354;52.892;6.148;2022-08-03T07:36:59;16.05;;;5.45;;
52434;SDS011;38354;52.892;6.148;2022-08-03T07:39:24;17.90;;;5.40;;
52434;SDS011;38354;52.892;6.148;2022-08-03T07:41:50;22.23;;;6.18;;
52434;SDS011;38354;52.892;6.148;2022-08-03T07:44:16;15.57;;;5.53;;
52434;SDS011;38354;52.892;6.148;2022-08-03T07:46:43;14.85;;;5.70;;
52434;SDS011;38354;52.892;6.148;2022-08-03T07:49:09;14.95;;;5.07;;
52434;SDS011;38354;52.892;6.148;2022-08-03T07:51:34;16.92;;;5.05;;
52434;SDS011;38354;52.892;6.148;2022-08-03T07:54:00;18.08;;;4.95;;
52434;SDS011;38354;52.892;6.148;2022-08-03T07:56:26;19.48;;;6.20;;
52434;SDS011;38354;52.892;6.148;2022-08-03T07:58:52;21.73;;;6.60;;
52434;SDS011;38354;52.892;6.148;2022-08-03T08:01:19;18.90;;;6.10;;
52434;SDS011;38354;52.892;6.148;2022-08-03T08:03:45;15.63;;;6.10;;
52434;SDS011;38354;52.892;6.148;2022-08-03T08:06:11;20.65;;;5.75;;
52434;SDS011;38354;52.892;6.148;2022-08-03T08:08:37;21.92;;;5.78;;
52434;SDS011;38354;52.892;6.148;2022-08-03T08:11:03;19.75;;;6.28;;
52434;SDS011;38354;52.892;6.148;2022-08-03T08:13:30;17.85;;;5.47;;
52434;SDS011;38354;52.892;6.148;2022-08-03T08:15:55;16.55;;;5.75;;
52434;SDS011;38354;52.892;6.148;2022-08-03T08:18:21;13.70;;;5.35;;
52434;SDS011;38354;52.892;6.148;2022-08-03T08:20:48;12.18;;;5.25;;
52434;SDS011;38354;52.892;6.148;2022-08-03T08:23:14;18.75;;;4.93;;
52434;SDS011;38354;52.892;6.148;2022-08-03T08:25:46;17.88;;;5.05;;
52434;SDS011;38354;52.892;6.148;2022-08-03T08:28:13;17.92;;;5.78;;
52434;SDS011;38354;52.892;6.148;2022-08-03T08:30:38;17.30;;;4.32;;
52434;SDS011;38354;52.892;6.148;2022-08-03T08:33:04;16.73;;;5.13;;
52434;SDS011;38354;52.892;6.148;2022-08-03T08:35:30;15.93;;;4.70;;
52434;SDS011;38354;52.892;6.148;2022-08-03T08:37:55;15.50;;;5.10;;
52434;SDS011;38354;52.892;6.148;2022-08-03T08:40:23;19.23;;;5.32;;
52434;SDS011;38354;52.892;6.148;2022-08-03T08:42:50;13.88;;;4.55;;
52434;SDS011;38354;52.892;6.148;2022-08-03T08:45:16;11.80;;;4.47;;
52434;SDS011;38354;52.892;6.148;2022-08-03T08:47:44;14.25;;;4.50;;
52434;SDS011;38354;52.892;6.148;2022-08-03T08:50:12;10.57;;;4.15;;
52434;SDS011;38354;52.892;6.148;2022-08-03T08:52:42;18.13;;;4.82;;
52434;SDS011;38354;52.892;6.148;2022-08-03T08:55:12;15.38;;;5.05;;
52434;SDS011;38354;52.892;6.148;2022-08-03T08:57:46;17.63;;;5.45;;
52434;SDS011;38354;52.892;6.148;2022-08-03T09:00:14;14.52;;;4.57;;
52434;SDS011;38354;52.892;6.148;2022-08-03T09:02:43;16.10;;;5.60;;
52434;SDS011;38354;52.892;6.148;2022-08-03T09:05:10;11.73;;;4.80;;
52434;SDS011;38354;52.892;6.148;2022-08-03T09:07:37;11.52;;;4.65;;
52434;SDS011;38354;52.892;6.148;2022-08-03T09:10:05;18.80;;;5.20;;
52434;SDS011;38354;52.892;6.148;2022-08-03T09:12:36;16.42;;;6.32;;
52434;SDS011;38354;52.892;6.148;2022-08-03T09:15:30;14.65;;;4.90;;
52434;SDS011;38354;52.892;6.148;2022-08-03T09:18:00;12.35;;;4.35;;
52434;SDS011;38354;52.892;6.148;2022-08-03T09:20:28;18.05;;;5.78;;
52434;SDS011;38354;52.892;6.148;2022-08-03T09:25:26;22.65;;;5.57;;
52434;SDS011;38354;52.892;6.148;2022-08-03T09:28:16;12.93;;;4.75;;
52434;SDS011;38354;52.892;6.148;2022-08-03T09:30:43;18.33;;;5.25;;
52434;SDS011;38354;52.892;6.148;2022-08-03T09:33:21;15.20;;;6.00;;
52434;SDS011;38354;52.892;6.148;2022-08-03T09:35:47;14.15;;;5.30;;
52434;SDS011;38354;52.892;6.148;2022-08-03T09:38:23;15.93;;;5.00;;
52434;SDS011;38354;52.892;6.148;2022-08-03T09:40:52;15.77;;;5.05;;
52434;SDS011;38354;52.892;6.148;2022-08-03T09:43:19;15.35;;;5.72;;
52434;SDS011;38354;52.892;6.148;2022-08-03T09:45:45;18.98;;;5.90;;
52434;SDS011;38354;52.892;6.148;2022-08-03T09:50:48;19.92;;;6.43;;
52434;SDS011;38354;52.892;6.148;2022-08-03T09:53:18;18.38;;;5.75;;
52434;SDS011;38354;52.892;6.148;2022-08-03T09:58:20;19.85;;;5.70;;
52434;SDS011;38354;52.892;6.148;2022-08-03T10:01:00;16.75;;;5.40;;
52434;SDS011;38354;52.892;6.148;2022-08-03T10:03:34;21.20;;;5.82;;
52434;SDS011;38354;52.892;6.148;2022-08-03T10:06:23;16.83;;;5.90;;
52434;SDS011;38354;52.892;6.148;2022-08-03T10:09:10;13.95;;;5.07;;
52434;SDS011;38354;52.892;6.148;2022-08-03T10:11:37;18.42;;;5.53;;
52434;SDS011;38354;52.892;6.148;2022-08-03T10:14:05;16.27;;;5.80;;
52434;SDS011;38354;52.892;6.148;2022-08-03T10:16:34;14.95;;;4.97;;
52434;SDS011;38354;52.892;6.148;2022-08-03T10:19:02;18.52;;;5.85;;
52434;SDS011;38354;52.892;6.148;2022-08-03T10:21:31;21.02;;;4.35;;
52434;SDS011;38354;52.892;6.148;2022-08-03T10:24:02;19.88;;;4.80;;
52434;SDS011;38354;52.892;6.148;2022-08-03T10:26:30;15.52;;;5.07;;
52434;SDS011;38354;52.892;6.148;2022-08-03T10:29:02;15.93;;;4.35;;
52434;SDS011;38354;52.892;6.148;2022-08-03T10:31:34;19.00;;;4.63;;
52434;SDS011;38354;52.892;6.148;2022-08-03T10:34:04;13.85;;;4.43;;
52434;SDS011;38354;52.892;6.148;2022-08-03T10:36:42;16.25;;;4.80;;
52434;SDS011;38354;52.892;6.148;2022-08-03T10:39:10;18.65;;;4.80;;
52434;SDS011;38354;52.892;6.148;2022-08-03T10:41:38;16.10;;;4.50;;
52434;SDS011;38354;52.892;6.148;2022-08-03T10:44:10;18.38;;;4.82;;
52434;SDS011;38354;52.892;6.148;2022-08-03T10:46:41;17.63;;;4.15;;
52434;SDS011;38354;52.892;6.148;2022-08-03T10:49:12;22.98;;;5.88;;
52434;SDS011;38354;52.892;6.148;2022-08-03T10:51:39;19.05;;;3.90;;
52434;SDS011;38354;52.892;6.148;2022-08-03T10:54:06;15.98;;;4.85;;
52434;SDS011;38354;52.892;6.148;2022-08-03T10:56:52;19.13;;;4.78;;
52434;SDS011;38354;52.892;6.148;2022-08-03T11:02:14;17.77;;;5.00;;
52434;SDS011;38354;52.892;6.148;2022-08-03T11:04:40;22.60;;;4.82;;
52434;SDS011;38354;52.892;6.148;2022-08-03T11:09:43;12.90;;;4.30;;
52434;SDS011;38354;52.892;6.148;2022-08-03T11:12:30;17.25;;;4.95;;
52434;SDS011;38354;52.892;6.148;2022-08-03T11:15:02;20.20;;;5.82;;
52434;SDS011;38354;52.892;6.148;2022-08-03T11:17:30;15.25;;;5.05;;
52434;SDS011;38354;52.892;6.148;2022-08-03T11:19:57;15.20;;;4.30;;
52434;SDS011;38354;52.892;6.148;2022-08-03T11:22:22;18.83;;;5.30;;
52434;SDS011;38354;52.892;6.148;2022-08-03T11:27:28;18.70;;;5.28;;
52434;SDS011;38354;52.892;6.148;2022-08-03T11:35:14;19.92;;;5.50;;
52434;SDS011;38354;52.892;6.148;2022-08-03T11:43:03;19.80;;;5.20;;
52434;SDS011;38354;52.892;6.148;2022-08-03T11:45:57;21.80;;;5.82;;
52434;SDS011;38354;52.892;6.148;2022-08-03T11:48:39;19.65;;;5.72;;
52434;SDS011;38354;52.892;6.148;2022-08-03T11:53:50;22.92;;;6.20;;
52434;SDS011;38354;52.892;6.148;2022-08-03T11:56:26;24.83;;;5.97;;
52434;SDS011;38354;52.892;6.148;2022-08-03T11:58:54;20.50;;;5.75;;
52434;SDS011;38354;52.892;6.148;2022-08-03T12:01:21;19.15;;;5.57;;
52434;SDS011;38354;52.892;6.148;2022-08-03T12:03:48;21.92;;;5.88;;
52434;SDS011;38354;52.892;6.148;2022-08-03T12:06:15;20.33;;;5.72;;
52434;SDS011;38354;52.892;6.148;2022-08-03T12:08:42;20.70;;;5.15;;
52434;SDS011;38354;52.892;6.148;2022-08-03T12:11:09;17.20;;;5.18;;
52434;SDS011;38354;52.892;6.148;2022-08-03T12:13:44;17.70;;;5.45;;
52434;SDS011;38354;52.892;6.148;2022-08-03T12:16:18;18.73;;;5.70;;
52434;SDS011;38354;52.892;6.148;2022-08-03T12:18:53;23.15;;;4.82;;
52434;SDS011;38354;52.892;6.148;2022-08-03T12:21:20;22.58;;;6.03;;
52434;SDS011;38354;52.892;6.148;2022-08-03T12:23:48;17.60;;;4.70;;
52434;SDS011;38354;52.892;6.148;2022-08-03T12:26:14;22.73;;;5.60;;
52434;SDS011;38354;52.892;6.148;2022-08-03T12:28:47;16.95;;;4.45;;
52434;SDS011;38354;52.892;6.148;2022-08-03T12:31:13;14.40;;;4.65;;
52434;SDS011;38354;52.892;6.148;2022-08-03T12:33:58;15.90;;;4.20;;
52434;SDS011;38354;52.892;6.148;2022-08-03T12:36:30;16.85;;;5.22;;
52434;SDS011;38354;52.892;6.148;2022-08-03T12:39:04;16.42;;;4.95;;
52434;SDS011;38354;52.892;6.148;2022-08-03T12:41:35;17.50;;;4.57;;
52434;SDS011;38354;52.892;6.148;2022-08-03T12:44:03;14.60;;;4.07;;
52434;SDS011;38354;52.892;6.148;2022-08-03T12:46:37;16.58;;;4.70;;
52434;SDS011;38354;52.892;6.148;2022-08-03T12:49:08;19.07;;;4.60;;
52434;SDS011;38354;52.892;6.148;2022-08-03T12:51:37;18.50;;;4.30;;
52434;SDS011;38354;52.892;6.148;2022-08-03T12:54:25;11.45;;;4.03;;
52434;SDS011;38354;52.892;6.148;2022-08-03T12:57:11;15.35;;;4.43;;
52434;SDS011;38354;52.892;6.148;2022-08-03T12:59:38;13.82;;;4.82;;
52434;SDS011;38354;52.892;6.148;2022-08-03T13:02:14;14.73;;;3.70;;
52434;SDS011;38354;52.892;6.148;2022-08-03T13:04:41;12.00;;;4.30;;
52434;SDS011;38354;52.892;6.148;2022-08-03T13:07:09;13.48;;;3.97;;
52434;SDS011;38354;52.892;6.148;2022-08-03T13:09:46;14.57;;;3.78;;
52434;SDS011;38354;52.892;6.148;2022-08-03T13:12:16;16.15;;;4.40;;
52434;SDS011;38354;52.892;6.148;2022-08-03T13:14:59;12.15;;;3.85;;
52434;SDS011;38354;52.892;6.148;2022-08-03T13:17:25;14.00;;;3.70;;
52434;SDS011;38354;52.892;6.148;2022-08-03T13:19:52;10.70;;;4.13;;
52434;SDS011;38354;52.892;6.148;2022-08-03T13:22:18;12.02;;;3.70;;
52434;SDS011;38354;52.892;6.148;2022-08-03T13:24:47;15.50;;;4.25;;
52434;SDS011;38354;52.892;6.148;2022-08-03T13:27:14;11.43;;;4.00;;
52434;SDS011;38354;52.892;6.148;2022-08-03T13:29:40;13.52;;;3.55;;
52434;SDS011;38354;52.892;6.148;2022-08-03T13:32:07;16.88;;;3.63;;
52434;SDS011;38354;52.892;6.148;2022-08-03T13:34:33;15.30;;;3.47;;
52434;SDS011;38354;52.892;6.148;2022-08-03T13:36:59;10.70;;;3.17;;
52434;SDS011;38354;52.892;6.148;2022-08-03T13:39:24;11.38;;;3.20;;
52434;SDS011;38354;52.892;6.148;2022-08-03T13:41:50;9.43;;;3.97;;
52434;SDS011;38354;52.892;6.148;2022-08-03T13:44:17;13.77;;;3.78;;
52434;SDS011;38354;52.892;6.148;2022-08-03T13:46:43;8.60;;;3.58;;
52434;SDS011;38354;52.892;6.148;2022-08-03T13:49:09;10.05;;;3.88;;
52434;SDS011;38354;52.892;6.148;2022-08-03T13:51:35;14.82;;;4.15;;
52434;SDS011;38354;52.892;6.148;2022-08-03T13:54:00;14.60;;;3.80;;
52434;SDS011;38354;52.892;6.148;2022-08-03T13:56:26;12.60;;;4.40;;
52434;SDS011;38354;52.892;6.148;2022-08-03T13:58:52;14.73;;;4.43;;
52434;SDS011;38354;52.892;6.148;2022-08-03T14:01:18;14.60;;;5.05;;
52434;SDS011;38354;52.892;6.148;2022-08-03T14:03:44;16.63;;;5.13;;
52434;SDS011;38354;52.892;6.148;2022-08-03T14:06:16;15.23;;;4.78;;
52434;SDS011;38354;52.892;6.148;2022-08-03T14:08:42;17.52;;;5.75;;
52434;SDS011;38354;52.892;6.148;2022-08-03T14:11:08;11.73;;;4.60;;
52434;SDS011;38354;52.892;6.148;2022-08-03T14:13:34;15.30;;;5.50;;
52434;SDS011;38354;52.892;6.148;2022-08-03T14:16:00;11.85;;;5.22;;
52434;SDS011;38354;52.892;6.148;2022-08-03T14:18:26;13.70;;;5.00;;
52434;SDS011;38354;52.892;6.148;2022-08-03T14:20:52;13.40;;;5.22;;
52434;SDS011;38354;52.892;6.148;2022-08-03T14:23:17;16.92;;;5.40;;
52434;SDS011;38354;52.892;6.148;2022-08-03T14:25:44;12.30;;;5.30;;
52434;SDS011;38354;52.892;6.148;2022-08-03T14:28:10;15.18;;;5.35;;
52434;SDS011;38354;52.892;6.148;2022-08-03T14:30:35;14.93;;;4.82;;
52434;SDS011;38354;52.892;6.148;2022-08-03T14:33:01;16.95;;;4.72;;
52434;SDS011;38354;52.892;6.148;2022-08-03T14:35:27;14.95;;;5.28;;
52434;SDS011;38354;52.892;6.148;2022-08-03T14:37:53;10.07;;;4.70;;
52434;SDS011;38354;52.892;6.148;2022-08-03T14:40:18;15.32;;;4.68;;
52434;SDS011;38354;52.892;6.148;2022-08-03T14:42:45;10.20;;;4.28;;
52434;SDS011;38354;52.892;6.148;2022-08-03T14:45:11;12.02;;;4.38;;
52434;SDS011;38354;52.892;6.148;2022-08-03T14:47:37;11.73;;;4.65;;
52434;SDS011;38354;52.892;6.148;2022-08-03T14:50:03;13.15;;;4.72;;
52434;SDS011;38354;52.892;6.148;2022-08-03T14:52:30;14.80;;;4.32;;
52434;SDS011;38354;52.892;6.148;2022-08-03T14:54:56;8.90;;;4.25;;
52434;SDS011;38354;52.892;6.148;2022-08-03T14:57:22;13.98;;;4.10;;
52434;SDS011;38354;52.892;6.148;2022-08-03T14:59:48;13.07;;;4.10;;
52434;SDS011;38354;52.892;6.148;2022-08-03T15:02:14;10.52;;;4.18;;
52434;SDS011;38354;52.892;6.148;2022-08-03T15:04:40;10.77;;;3.95;;
52434;SDS011;38354;52.892;6.148;2022-08-03T15:07:05;12.82;;;5.03;;
52434;SDS011;38354;52.892;6.148;2022-08-03T15:09:31;12.18;;;4.03;;
52434;SDS011;38354;52.892;6.148;2022-08-03T15:11:57;17.20;;;4.50;;
52434;SDS011;38354;52.892;6.148;2022-08-03T15:14:23;12.43;;;4.00;;
52434;SDS011;38354;52.892;6.148;2022-08-03T15:16:49;16.05;;;3.72;;
52434;SDS011;38354;52.892;6.148;2022-08-03T15:19:14;10.07;;;3.50;;
52434;SDS011;38354;52.892;6.148;2022-08-03T15:21:40;10.82;;;2.90;;
52434;SDS011;38354;52.892;6.148;2022-08-03T15:24:06;12.23;;;3.10;;
52434;SDS011;38354;52.892;6.148;2022-08-03T15:26:32;12.18;;;3.40;;
52434;SDS011;38354;52.892;6.148;2022-08-03T15:28:57;10.38;;;2.72;;
52434;SDS011;38354;52.892;6.148;2022-08-03T15:31:23;11.40;;;3.00;;
52434;SDS011;38354;52.892;6.148;2022-08-03T15:33:50;12.30;;;2.72;;
52434;SDS011;38354;52.892;6.148;2022-08-03T15:36:16;8.35;;;2.58;;
52434;SDS011;38354;52.892;6.148;2022-08-03T15:38:42;10.93;;;3.33;;
52434;SDS011;38354;52.892;6.148;2022-08-03T15:41:09;14.35;;;3.63;;
52434;SDS011;38354;52.892;6.148;2022-08-03T15:43:34;9.48;;;2.72;;
52434;SDS011;38354;52.892;6.148;2022-08-03T15:46:00;11.85;;;3.42;;
52434;SDS011;38354;52.892;6.148;2022-08-03T15:48:26;10.80;;;2.80;;
52434;SDS011;38354;52.892;6.148;2022-08-03T15:50:51;11.20;;;2.47;;
52434;SDS011;38354;52.892;6.148;2022-08-03T15:53:18;9.93;;;2.70;;
52434;SDS011;38354;52.892;6.148;2022-08-03T15:55:44;9.88;;;2.70;;
52434;SDS011;38354;52.892;6.148;2022-08-03T15:58:10;10.82;;;3.20;;
52434;SDS011;38354;52.892;6.148;2022-08-03T16:00:35;8.30;;;2.63;;
52434;SDS011;38354;52.892;6.148;2022-08-03T16:03:02;7.90;;;2.88;;
52434;SDS011;38354;52.892;6.148;2022-08-03T16:05:27;12.20;;;2.65;;
52434;SDS011;38354;52.892;6.148;2022-08-03T16:07:53;8.65;;;2.78;;
52434;SDS011;38354;52.892;6.148;2022-08-03T16:10:19;13.73;;;2.42;;
52434;SDS011;38354;52.892;6.148;2022-08-03T16:12:46;11.52;;;2.63;;
52434;SDS011;38354;52.892;6.148;2022-08-03T16:15:12;11.70;;;2.78;;
52434;SDS011;38354;52.892;6.148;2022-08-03T16:17:40;15.23;;;2.70;;
52434;SDS011;38354;52.892;6.148;2022-08-03T16:20:07;9.77;;;2.47;;
52434;SDS011;38354;52.892;6.148;2022-08-03T16:22:42;9.30;;;2.83;;
52434;SDS011;38354;52.892;6.148;2022-08-03T16:25:09;12.85;;;3.42;;
52434;SDS011;38354;52.892;6.148;2022-08-03T16:30:41;10.95;;;2.70;;
52434;SDS011;38354;52.892;6.148;2022-08-03T16:33:07;12.95;;;3.03;;
52434;SDS011;38354;52.892;6.148;2022-08-03T16:35:33;10.93;;;2.78;;
52434;SDS011;38354;52.892;6.148;2022-08-03T16:37:59;13.32;;;3.08;;
52434;SDS011;38354;52.892;6.148;2022-08-03T16:40:25;11.25;;;2.60;;
52434;SDS011;38354;52.892;6.148;2022-08-03T16:42:51;12.65;;;2.65;;
52434;SDS011;38354;52.892;6.148;2022-08-03T16:45:16;10.68;;;2.50;;
52434;SDS011;38354;52.892;6.148;2022-08-03T16:47:42;11.13;;;2.25;;
52434;SDS011;38354;52.892;6.148;2022-08-03T16:50:08;15.77;;;2.88;;
52434;SDS011;38354;52.892;6.148;2022-08-03T16:52:34;13.63;;;2.13;;
52434;SDS011;38354;52.892;6.148;2022-08-03T16:55:00;13.07;;;2.30;;
52434;SDS011;38354;52.892;6.148;2022-08-03T16:57:27;6.97;;;2.08;;
52434;SDS011;38354;52.892;6.148;2022-08-03T16:59:53;9.98;;;2.78;;
52434;SDS011;38354;52.892;6.148;2022-08-03T17:02:20;9.60;;;2.35;;
52434;SDS011;38354;52.892;6.148;2022-08-03T17:04:48;7.45;;;1.90;;
52434;SDS011;38354;52.892;6.148;2022-08-03T17:07:25;10.55;;;2.50;;
52434;SDS011;38354;52.892;6.148;2022-08-03T17:09:51;11.32;;;2.38;;
52434;SDS011;38354;52.892;6.148;2022-08-03T17:12:16;10.70;;;2.40;;
52434;SDS011;38354;52.892;6.148;2022-08-03T17:14:42;10.80;;;2.47;;
52434;SDS011;38354;52.892;6.148;2022-08-03T17:17:15;8.07;;;2.10;;
52434;SDS011;38354;52.892;6.148;2022-08-03T17:19:45;14.32;;;3.35;;
52434;SDS011;38354;52.892;6.148;2022-08-03T17:22:14;10.80;;;2.47;;
52434;SDS011;38354;52.892;6.148;2022-08-03T17:24:53;11.13;;;2.65;;
52434;SDS011;38354;52.892;6.148;2022-08-03T17:27:33;13.00;;;2.40;;
52434;SDS011;38354;52.892;6.148;2022-08-03T17:30:10;12.02;;;2.28;;
52434;SDS011;38354;52.892;6.148;2022-08-03T17:32:37;17.02;;;2.60;;
52434;SDS011;38354;52.892;6.148;2022-08-03T17:35:07;14.15;;;2.75;;
52434;SDS011;38354;52.892;6.148;2022-08-03T17:37:33;11.90;;;2.80;;
52434;SDS011;38354;52.892;6.148;2022-08-03T17:39:59;12.63;;;2.38;;
52434;SDS011;38354;52.892;6.148;2022-08-03T17:42:25;12.07;;;2.35;;
52434;SDS011;38354;52.892;6.148;2022-08-03T17:44:53;11.30;;;2.58;;
52434;SDS011;38354;52.892;6.148;2022-08-03T17:47:19;11.55;;;3.58;;
52434;SDS011;38354;52.892;6.148;2022-08-03T17:49:46;7.85;;;2.15;;
52434;SDS011;38354;52.892;6.148;2022-08-03T17:52:16;14.88;;;2.92;;
52434;SDS011;38354;52.892;6.148;2022-08-03T17:55:02;13.68;;;2.58;;
52434;SDS011;38354;52.892;6.148;2022-08-03T17:57:36;11.55;;;2.25;;
52434;SDS011;38354;52.892;6.148;2022-08-03T18:00:11;8.38;;;2.35;;
52434;SDS011;38354;52.892;6.148;2022-08-03T18:05:45;15.55;;;2.75;;
52434;SDS011;38354;52.892;6.148;2022-08-03T18:08:25;10.05;;;2.75;;
52434;SDS011;38354;52.892;6.148;2022-08-03T18:10:58;12.93;;;2.45;;
52434;SDS011;38354;52.892;6.148;2022-08-03T18:16:23;13.85;;;2.95;;
52434;SDS011;38354;52.892;6.148;2022-08-03T18:19:10;11.88;;;2.47;;
52434;SDS011;38354;52.892;6.148;2022-08-03T18:21:37;11.02;;;2.20;;